Time;durP1;ratioP1;P1;durP2;ratioP2;P2;SDS_P1;SDS_P2;PMS_P1;PMS_P2;Temp;Humidity;BMP_temperature;BMP_pressure;BME280_temperature;BME280_humidity;BME280_pressure;Samples;Min_cycle;Max_cycle;Signal;HPM_P1;HPM_P2
2022/07/23 00:01:27;;;;;;;14.45;5.28;;;;;;;15.45;90.03;101689.53;5032029;28;20024;-74
2022/07/23 00:03:54;;;;;;;15.90;5.43;;;;;;;15.44;89.74;101694.06;5030760;28;20083;-74
2022/07/23 00:06:19;;;;;;;16.02;5.40;;;;;;;15.43;89.58;101688.78;5013844;28;20018;-74
2022/07/23 00:08:44;;;;;;;16.48;5.82;;;;;;;15.42;89.83;101695.16;5017010;28;20041;-74
2022/07/23 00:11:09;;;;;;;13.95;5.18;;;;;;;15.40;89.92;101697.16;5028930;28;20504;-74
2022/07/23 00:13:35;;;;;;;20.23;6.07;;;;;;;15.40;89.69;101700.72;5016837;28;20071;-74
2022/07/23 00:16:00;;;;;;;15.27;5.32;;;;;;;15.37;89.66;101696.44;5020315;28;20021;-74
2022/07/23 00:18:25;;;;;;;14.13;5.38;;;;;;;15.31;90.23;101694.19;5019544;28;20033;-74
2022/07/23 00:20:51;;;;;;;16.25;6.07;;;;;;;15.28;90.02;101689.00;5013315;28;20030;-74
2022/07/23 00:23:17;;;;;;;16.15;5.97;;;;;;;15.28;89.99;101690.88;5019558;28;20127;-74
2022/07/23 00:25:42;;;;;;;16.73;5.68;;;;;;;15.23;89.80;101696.66;5023325;28;20036;-74
2022/07/23 00:28:07;;;;;;;17.23;6.10;;;;;;;15.20;89.99;101691.50;5012874;28;20046;-74
2022/07/23 00:30:32;;;;;;;16.45;5.88;;;;;;;15.15;90.02;101691.88;5029589;28;20029;-74
2022/07/23 00:33:01;;;;;;;16.23;6.53;;;;;;;15.13;90.06;101687.53;5019242;28;20041;-74
2022/07/23 00:35:28;;;;;;;16.95;6.22;;;;;;;15.11;89.46;101692.19;5021983;28;20032;-74
2022/07/23 00:37:54;;;;;;;15.90;5.82;;;;;;;15.06;89.64;101691.72;5027570;28;20541;-74
2022/07/23 00:40:20;;;;;;;18.27;6.50;;;;;;;15.00;89.48;101691.19;5024736;28;20022;-74
2022/07/23 00:42:46;;;;;;;15.23;5.63;;;;;;;14.94;90.00;101685.44;5032495;28;20554;-74
2022/07/23 00:45:11;;;;;;;15.30;5.32;;;;;;;14.93;90.29;101681.84;5030794;28;20385;-74
2022/07/23 00:47:36;;;;;;;16.17;5.80;;;;;;;14.94;90.14;101677.31;5012948;28;20107;-74
2022/07/23 00:50:07;;;;;;;16.20;6.03;;;;;;;14.92;90.03;101690.09;5015174;28;20029;-74
2022/07/23 00:52:33;;;;;;;14.73;5.78;;;;;;;14.87;89.95;101692.31;5021538;28;20436;-74
2022/07/23 00:54:59;;;;;;;14.57;5.93;;;;;;;14.82;89.96;101682.69;5025107;28;20508;-74
2022/07/23 00:57:24;;;;;;;17.55;6.03;;;;;;;14.83;90.20;101681.72;5032129;28;20033;-74
2022/07/23 00:59:49;;;;;;;16.25;6.32;;;;;;;14.81;89.84;101685.53;5020657;28;20030;-74
2022/07/23 01:02:15;;;;;;;17.15;6.07;;;;;;;14.77;89.73;101689.44;5028074;28;20027;-74
2022/07/23 01:04:40;;;;;;;17.80;6.18;;;;;;;14.71;90.22;101690.78;5025021;28;20037;-74
2022/07/23 01:07:06;;;;;;;17.08;6.53;;;;;;;14.66;90.70;101691.13;5041602;28;20049;-74
2022/07/23 01:09:31;;;;;;;17.27;6.13;;;;;;;14.59;90.72;101684.44;5020036;28;20088;-74
2022/07/23 01:11:57;;;;;;;17.52;6.65;;;;;;;14.57;90.95;101686.41;5030267;28;20030;-74
2022/07/23 01:14:22;;;;;;;18.05;7.28;;;;;;;14.55;91.11;101680.25;5018388;28;20052;-74
2022/07/23 01:16:49;;;;;;;16.35;6.40;;;;;;;14.51;90.77;101671.50;5012214;28;20035;-74
2022/07/23 01:19:15;;;;;;;19.38;7.13;;;;;;;14.49;90.96;101678.91;5028393;28;20025;-74
2022/07/23 01:21:43;;;;;;;18.98;6.43;;;;;;;14.48;90.55;101668.16;5012277;28;20041;-74
2022/07/23 01:24:09;;;;;;;18.25;6.88;;;;;;;14.48;91.07;101674.47;5023856;28;20032;-74
2022/07/23 01:26:36;;;;;;;20.52;6.70;;;;;;;14.45;91.28;101680.09;5022439;28;20061;-74
2022/07/23 01:29:03;;;;;;;16.85;6.90;;;;;;;14.42;91.49;101674.06;5028672;28;20038;-74
2022/07/23 01:31:28;;;;;;;20.13;7.43;;;;;;;14.39;91.59;101683.25;5032123;28;20060;-74
2022/07/23 01:33:53;;;;;;;20.75;7.47;;;;;;;14.40;91.70;101682.28;5020964;28;20468;-74
2022/07/23 01:36:19;;;;;;;20.33;6.85;;;;;;;14.41;91.16;101672.34;5031470;28;20099;-74
2022/07/23 01:38:44;;;;;;;18.75;6.80;;;;;;;14.40;91.10;101667.91;5020453;28;20440;-74
2022/07/23 01:41:09;;;;;;;19.98;6.88;;;;;;;14.38;90.70;101672.56;5031151;28;20053;-74
2022/07/23 01:43:35;;;;;;;19.30;6.57;;;;;;;14.32;90.52;101669.34;5029340;28;20021;-74
2022/07/23 01:46:00;;;;;;;16.80;6.18;;;;;;;14.24;91.10;101669.06;5017088;28;20408;-74
2022/07/23 01:48:25;;;;;;;15.20;6.32;;;;;;;14.23;90.95;101670.06;5028343;28;20087;-74
2022/07/23 01:50:51;;;;;;;21.17;6.93;;;;;;;14.19;91.20;101673.97;5016108;28;20064;-74
2022/07/23 01:53:16;;;;;;;21.08;6.97;;;;;;;14.18;91.67;101658.72;5023887;28;20018;-74
2022/07/23 01:55:42;;;;;;;16.95;6.53;;;;;;;14.20;91.24;101661.31;5029033;28;20029;-74
2022/07/23 01:58:08;;;;;;;15.65;5.47;;;;;;;14.19;90.75;101663.16;5030183;28;20025;-74
2022/07/23 02:00:33;;;;;;;17.77;5.88;;;;;;;14.20;90.58;101661.31;5026500;28;20504;-74
2022/07/23 02:02:58;;;;;;;18.63;7.38;;;;;;;14.15;90.56;101656.25;5028664;28;20032;-74
2022/07/23 02:05:25;;;;;;;17.90;6.60;;;;;;;14.12;90.67;101657.34;5026984;28;20088;-74
2022/07/23 02:07:50;;;;;;;18.50;6.75;;;;;;;14.05;90.94;101661.47;5030304;28;20497;-74
2022/07/23 02:10:15;;;;;;;16.30;6.55;;;;;;;14.05;91.26;101658.78;5017363;28;20029;-74
2022/07/23 02:12:41;;;;;;;16.50;6.57;;;;;;;14.01;90.86;101661.84;5027363;28;20056;-74
2022/07/23 02:15:07;;;;;;;16.65;6.18;;;;;;;13.98;90.97;101655.69;5026209;28;20112;-74
2022/07/23 02:17:32;;;;;;;19.63;7.18;;;;;;;13.97;90.92;101659.38;5030399;28;20017;-74
2022/07/23 02:19:57;;;;;;;14.73;6.28;;;;;;;13.95;90.80;101657.75;5017312;28;20026;-74
2022/07/23 02:22:23;;;;;;;15.82;5.65;;;;;;;13.96;90.66;101657.63;5023031;28;20366;-74
2022/07/23 02:24:48;;;;;;;18.08;6.00;;;;;;;13.92;90.55;101655.28;5024436;28;20036;-74
2022/07/23 02:27:13;;;;;;;17.77;6.57;;;;;;;13.85;90.59;101652.19;5030077;28;20753;-74
2022/07/23 02:29:39;;;;;;;16.65;6.10;;;;;;;13.83;90.83;101659.53;5028779;28;20551;-74
2022/07/23 02:32:04;;;;;;;20.75;6.20;;;;;;;13.83;91.10;101654.13;5023340;28;20034;-74
2022/07/23 02:34:29;;;;;;;17.25;6.47;;;;;;;13.80;90.98;101638.13;5013871;28;20025;-74
2022/07/23 02:36:54;;;;;;;18.88;6.45;;;;;;;13.79;90.33;101648.09;5019328;28;20449;-74
2022/07/23 02:39:20;;;;;;;16.00;6.07;;;;;;;13.73;90.57;101648.53;5026186;28;20060;-74
2022/07/23 02:41:45;;;;;;;16.52;6.40;;;;;;;13.73;90.37;101647.69;5013042;28;20120;-74
2022/07/23 02:44:10;;;;;;;16.20;5.80;;;;;;;13.70;90.75;101650.59;5028198;28;20083;-74
2022/07/23 02:46:36;;;;;;;20.20;6.90;;;;;;;13.64;91.22;101652.78;5018631;28;20497;-74
2022/07/23 02:49:01;;;;;;;18.77;6.45;;;;;;;13.63;91.47;101656.47;5026316;28;20512;-74
2022/07/23 02:51:26;;;;;;;18.40;5.95;;;;;;;13.67;91.82;101662.50;5020918;28;20033;-74
2022/07/23 02:53:51;;;;;;;19.42;6.60;;;;;;;13.66;91.60;101659.91;5026637;28;20030;-74
2022/07/23 02:56:17;;;;;;;16.85;6.70;;;;;;;13.63;91.08;101661.00;5029963;28;20037;-74
2022/07/23 02:58:42;;;;;;;18.30;6.20;;;;;;;13.62;90.87;101665.53;5032994;28;20163;-74
2022/07/23 03:01:07;;;;;;;15.45;5.57;;;;;;;13.59;90.68;101667.63;5033400;28;20381;-74
2022/07/23 03:03:32;;;;;;;14.93;5.78;;;;;;;13.53;90.54;101662.63;5033560;28;20101;-74
2022/07/23 03:05:58;;;;;;;13.82;4.80;;;;;;;13.52;90.59;101661.78;5033555;28;20494;-74
2022/07/23 03:08:23;;;;;;;15.13;5.22;;;;;;;13.50;90.25;101663.75;5016052;28;20029;-74
2022/07/23 03:10:49;;;;;;;15.57;5.38;;;;;;;13.48;90.27;101656.72;5033272;28;20033;-74
2022/07/23 03:13:16;;;;;;;15.82;5.50;;;;;;;13.42;91.13;101669.69;5027603;28;20033;-74
2022/07/23 03:15:41;;;;;;;14.00;4.57;;;;;;;13.39;90.35;101664.50;5024821;28;20040;-74
2022/07/23 03:18:06;;;;;;;14.65;4.85;;;;;;;13.36;90.06;101670.13;5034413;28;20033;-74
2022/07/23 03:20:32;;;;;;;12.80;4.78;;;;;;;13.34;90.63;101665.78;5021166;28;20029;-74
2022/07/23 03:22:57;;;;;;;13.98;5.55;;;;;;;13.28;90.94;101667.09;5014492;28;20026;-74
2022/07/23 03:25:22;;;;;;;12.73;4.95;;;;;;;13.26;90.57;101672.59;5027397;28;20022;-74
2022/07/23 03:27:48;;;;;;;14.68;5.38;;;;;;;13.23;90.30;101680.91;5014263;28;20062;-74
2022/07/23 03:30:13;;;;;;;15.07;5.90;;;;;;;13.20;90.57;101678.44;5026784;28;20036;-74
2022/07/23 03:32:38;;;;;;;15.43;6.20;;;;;;;13.20;90.67;101681.13;5014612;28;20385;-74
2022/07/23 03:35:04;;;;;;;16.65;6.28;;;;;;;13.22;90.26;101687.31;5027177;28;20025;-74
2022/07/23 03:37:29;;;;;;;19.13;7.72;;;;;;;13.16;90.49;101676.06;5021089;28;20021;-74
2022/07/23 03:39:55;;;;;;;20.05;7.82;;;;;;;13.14;90.70;101681.56;5032352;28;20029;-74
2022/07/23 03:42:20;;;;;;;18.95;7.55;;;;;;;13.16;90.45;101682.31;5017451;28;20026;-74
2022/07/23 03:44:45;;;;;;;21.25;8.30;;;;;;;13.13;90.24;101678.97;5029838;28;20397;-74
2022/07/23 03:47:11;;;;;;;20.20;8.68;;;;;;;13.10;90.92;101680.94;5014948;28;20029;-74
2022/07/23 03:49:36;;;;;;;22.17;9.10;;;;;;;13.07;90.57;101685.66;5031324;28;20037;-74
2022/07/23 03:52:01;;;;;;;20.25;8.20;;;;;;;13.06;90.92;101678.53;5030840;28;20036;-74
2022/07/23 03:54:27;;;;;;;21.30;8.48;;;;;;;13.07;90.54;101675.72;5032815;28;20025;-74
2022/07/23 03:56:52;;;;;;;20.70;8.85;;;;;;;13.05;90.78;101676.84;5032517;28;20021;-74
2022/07/23 03:59:17;;;;;;;19.25;9.20;;;;;;;13.04;90.93;101686.75;5030413;28;20033;-74
2022/07/23 04:01:43;;;;;;;22.02;8.48;;;;;;;13.04;91.21;101677.78;5030330;28;20037;-74
2022/07/23 04:04:08;;;;;;;20.13;8.43;;;;;;;13.06;91.36;101681.25;5028618;28;20124;-74
2022/07/23 04:06:34;;;;;;;18.80;8.02;;;;;;;13.07;90.71;101675.72;5026841;28;20021;-74
2022/07/23 04:08:59;;;;;;;19.88;8.95;;;;;;;13.09;90.87;101686.44;5017952;28;20029;-74
2022/07/23 04:11:25;;;;;;;17.63;7.90;;;;;;;13.09;91.04;101694.53;5022230;28;20594;-74
2022/07/23 04:13:50;;;;;;;19.63;8.35;;;;;;;13.04;91.01;101691.28;5011803;28;20044;-74
2022/07/23 04:16:15;;;;;;;20.38;9.00;;;;;;;13.01;91.38;101688.81;5021450;28;20059;-74
2022/07/23 04:18:40;;;;;;;26.40;8.25;;;;;;;12.96;91.66;101693.66;5032434;28;20057;-74
2022/07/23 04:21:06;;;;;;;19.85;8.18;;;;;;;12.95;91.61;101695.50;5024239;28;20052;-74
2022/07/23 04:23:31;;;;;;;21.40;8.35;;;;;;;12.97;91.91;101696.25;5029213;28;20065;-74
2022/07/23 04:25:56;;;;;;;18.40;7.78;;;;;;;13.00;91.97;101697.88;5017110;28;20032;-74
2022/07/23 04:28:22;;;;;;;20.42;9.10;;;;;;;13.03;91.88;101706.63;5031500;28;20034;-74
2022/07/23 04:30:47;;;;;;;21.85;8.77;;;;;;;13.02;92.03;101707.59;5027327;28;20025;-74
2022/07/23 04:33:12;;;;;;;20.92;8.80;;;;;;;13.03;92.48;101706.63;5014746;28;20029;-74
2022/07/23 04:35:37;;;;;;;19.42;8.45;;;;;;;13.03;92.15;101714.72;5029450;28;20612;-74
2022/07/23 04:38:03;;;;;;;19.10;8.48;;;;;;;13.07;92.94;101712.66;5030806;28;20108;-74
2022/07/23 04:40:29;;;;;;;21.95;8.98;;;;;;;13.10;93.07;101712.44;5028873;28;20025;-74
2022/07/23 04:42:54;;;;;;;21.73;9.18;;;;;;;13.11;93.30;101708.78;5013092;28;20029;-74
2022/07/23 04:45:20;;;;;;;22.30;9.32;;;;;;;13.16;92.96;101717.41;5029314;28;20030;-74
2022/07/23 04:47:45;;;;;;;21.48;9.07;;;;;;;13.21;93.22;101720.66;5027655;28;20033;-74
2022/07/23 04:50:11;;;;;;;21.33;8.95;;;;;;;13.27;93.34;101728.31;5019378;28;20037;-74
2022/07/23 04:52:36;;;;;;;20.73;8.60;;;;;;;13.33;93.21;101724.31;5026311;28;20038;-74
2022/07/23 04:55:03;;;;;;;23.83;10.60;;;;;;;13.31;93.59;101725.38;5012726;28;20014;-74
2022/07/23 04:57:28;;;;;;;20.08;9.55;;;;;;;13.32;93.62;101721.72;5018484;28;20117;-74
2022/07/23 04:59:53;;;;;;;23.67;11.27;;;;;;;13.38;94.11;101724.91;5029159;28;20442;-74
2022/07/23 05:02:18;;;;;;;22.77;11.82;;;;;;;13.42;93.89;101723.69;5026600;28;20030;-74
2022/07/23 05:04:44;;;;;;;22.60;11.45;;;;;;;13.45;94.13;101722.59;5029565;28;20477;-74
2022/07/23 05:07:09;;;;;;;23.00;12.10;;;;;;;13.52;94.23;101718.50;5030701;28;20100;-74
2022/07/23 05:09:34;;;;;;;21.83;11.90;;;;;;;13.56;93.87;101720.00;5022552;28;20029;-74
2022/07/23 05:12:00;;;;;;;23.38;11.88;;;;;;;13.62;94.25;101727.66;5029732;28;20056;-74
2022/07/23 05:14:25;;;;;;;23.10;12.23;;;;;;;13.66;94.33;101724.75;5030701;28;20389;-74
2022/07/23 05:16:50;;;;;;;20.92;11.43;;;;;;;13.71;94.52;101722.59;5029200;28;20053;-74
2022/07/23 05:19:16;;;;;;;24.42;13.32;;;;;;;13.76;95.00;101725.78;5012985;28;20077;-74
2022/07/23 05:21:41;;;;;;;23.52;11.45;;;;;;;13.80;95.10;101727.31;5025993;28;20037;-74
2022/07/23 05:24:06;;;;;;;23.48;12.27;;;;;;;13.85;94.87;101733.25;5043095;28;20079;-74
2022/07/23 05:26:32;;;;;;;23.08;12.25;;;;;;;13.91;95.61;101729.22;5029938;28;20021;-74
2022/07/23 05:28:57;;;;;;;20.92;10.60;;;;;;;13.93;95.69;101733.53;5020923;28;20032;-74
2022/07/23 05:31:22;;;;;;;23.75;11.73;;;;;;;13.99;94.81;101737.63;5028683;28;20095;-74
2022/07/23 05:33:47;;;;;;;22.95;11.32;;;;;;;14.06;95.18;101727.25;5013744;28;20072;-74
2022/07/23 05:36:13;;;;;;;24.50;11.75;;;;;;;14.11;94.89;101730.44;5014415;28;20025;-74
2022/07/23 05:38:38;;;;;;;21.38;10.18;;;;;;;14.18;95.48;101741.69;5029685;28;20037;-74
2022/07/23 05:41:04;;;;;;;25.77;11.40;;;;;;;14.22;94.89;101741.34;5024518;28;20478;-74
2022/07/23 05:43:29;;;;;;;23.75;10.30;;;;;;;14.28;94.62;101743.56;5016207;28;20079;-74
2022/07/23 05:45:54;;;;;;;22.92;10.80;;;;;;;14.32;95.05;101745.06;5025555;28;20485;-74
2022/07/23 05:48:20;;;;;;;25.45;10.60;;;;;;;14.36;94.73;101751.09;5024452;28;20034;-74
2022/07/23 05:50:46;;;;;;;23.33;10.77;;;;;;;14.44;95.17;101748.69;5025390;28;20026;-74
2022/07/23 05:53:12;;;;;;;22.70;11.07;;;;;;;14.50;95.53;101755.50;5027115;28;20025;-74
2022/07/23 05:55:37;;;;;;;22.35;10.43;;;;;;;14.56;96.02;101760.44;5025476;28;20469;-74
2022/07/23 05:58:02;;;;;;;21.90;10.20;;;;;;;14.61;95.98;101761.00;5017228;28;20026;-74
2022/07/23 06:00:28;;;;;;;25.58;11.52;;;;;;;14.67;96.09;101759.63;5027393;28;20501;-74
2022/07/23 06:02:53;;;;;;;23.13;11.07;;;;;;;14.71;94.80;101755.72;5010691;28;20026;-74
2022/07/23 06:05:19;;;;;;;23.15;11.20;;;;;;;14.76;94.74;101763.47;5025274;28;20028;-74
2022/07/23 06:07:44;;;;;;;24.10;10.65;;;;;;;14.82;94.66;101768.44;5013264;28;20477;-74
2022/07/23 06:10:10;;;;;;;24.60;11.65;;;;;;;14.89;95.36;101769.69;5028474;28;20444;-74
2022/07/23 06:12:35;;;;;;;24.90;11.40;;;;;;;14.95;96.17;101774.63;5015177;28;20057;-74
2022/07/23 06:15:00;;;;;;;23.38;11.30;;;;;;;14.99;93.79;101776.13;5021087;28;20108;-74
2022/07/23 06:17:26;;;;;;;25.17;11.40;;;;;;;15.05;94.10;101773.91;5011810;28;20537;-74
2022/07/23 06:19:52;;;;;;;24.40;12.07;;;;;;;15.11;94.12;101773.44;5021370;28;20381;-74
2022/07/23 06:22:18;;;;;;;22.40;10.95;;;;;;;15.17;93.85;101772.97;5026107;28;20412;-74
2022/07/23 06:24:43;;;;;;;21.23;10.80;;;;;;;15.24;93.30;101776.03;5030629;28;20036;-74
2022/07/23 06:27:08;;;;;;;27.85;10.82;;;;;;;15.30;92.25;101772.84;5028222;28;20401;-74
2022/07/23 06:29:33;;;;;;;20.77;10.32;;;;;;;15.36;92.10;101777.81;5022407;28;21337;-74
2022/07/23 06:31:59;;;;;;;22.05;10.27;;;;;;;15.42;92.42;101768.31;5024975;28;20469;-74
2022/07/23 06:34:24;;;;;;;23.63;10.57;;;;;;;15.49;94.06;101764.13;5038100;28;20056;-74
2022/07/23 06:36:50;;;;;;;21.35;10.70;;;;;;;15.52;90.62;101766.59;5026475;28;20099;-75
2022/07/23 06:39:15;;;;;;;20.27;9.43;;;;;;;15.59;91.70;101775.94;5026531;28;20492;-75
2022/07/23 06:41:40;;;;;;;18.70;7.05;;;;;;;15.65;90.02;101771.91;5025617;28;20025;-75
2022/07/23 06:44:05;;;;;;;23.75;10.02;;;;;;;15.73;91.80;101772.16;5027563;28;20126;-74
2022/07/23 06:46:31;;;;;;;19.80;8.77;;;;;;;15.79;91.52;101768.13;5026486;28;20104;-74
2022/07/23 06:48:56;;;;;;;23.15;9.35;;;;;;;15.83;89.09;101773.16;5023395;28;20509;-71
2022/07/23 06:51:21;;;;;;;20.00;8.32;;;;;;;15.87;87.25;101776.47;5025828;28;20113;-72
2022/07/23 06:53:47;;;;;;;19.42;7.82;;;;;;;15.94;88.32;101782.28;5027782;28;20402;-72
2022/07/23 06:56:12;;;;;;;19.92;7.85;;;;;;;15.97;85.28;101777.44;5024218;28;20107;-72
2022/07/23 06:58:37;;;;;;;16.90;6.68;;;;;;;16.02;84.96;101780.66;5026482;28;20155;-72
2022/07/23 07:01:02;;;;;;;21.73;7.40;;;;;;;16.08;86.51;101765.75;5025770;28;20040;-72
2022/07/23 07:03:28;;;;;;;18.85;6.85;;;;;;;16.15;87.95;101764.25;5027538;28;20465;-72
2022/07/23 07:05:53;;;;;;;19.48;7.60;;;;;;;16.20;85.58;101769.28;5027781;28;20026;-72
2022/07/23 07:08:18;;;;;;;21.60;7.35;;;;;;;16.25;86.51;101767.03;5026664;28;20405;-72
2022/07/23 07:10:44;;;;;;;19.55;5.97;;;;;;;16.32;86.04;101770.97;5025656;28;21433;-71
2022/07/23 07:13:09;;;;;;;20.52;7.35;;;;;;;16.37;85.43;101773.28;5041176;28;20532;-71
2022/07/23 07:15:34;;;;;;;19.48;6.60;;;;;;;16.42;84.60;101773.78;5028038;28;20021;-71
2022/07/23 07:18:00;;;;;;;20.67;6.55;;;;;;;16.49;85.37;101766.00;5024138;28;20034;-71
2022/07/23 07:20:25;;;;;;;20.58;7.95;;;;;;;16.56;85.97;101772.63;5027256;28;20022;-71
2022/07/23 07:22:50;;;;;;;16.67;6.38;;;;;;;16.59;83.78;101778.66;5028492;28;20026;-71
2022/07/23 07:25:16;;;;;;;18.20;5.75;;;;;;;16.64;83.94;101778.28;5023917;28;20033;-71
2022/07/23 07:27:43;;;;;;;16.48;6.03;;;;;;;16.68;82.82;101781.59;5025964;28;20049;-71
2022/07/23 07:30:09;;;;;;;16.27;4.88;;;;;;;16.70;80.13;101785.88;5025724;28;20105;-73
2022/07/23 07:32:36;;;;;;;17.23;6.07;;;;;;;16.75;80.15;101786.38;5022049;28;20037;-73
2022/07/23 07:35:03;;;;;;;16.35;5.88;;;;;;;16.81;82.39;101787.72;5024021;28;20030;-73
2022/07/23 07:37:29;;;;;;;17.48;6.72;;;;;;;16.86;81.10;101790.03;5023008;28;20021;-74
2022/07/23 07:39:54;;;;;;;18.95;5.70;;;;;;;16.91;78.60;101793.22;5025914;28;20022;-74
2022/07/23 07:42:19;;;;;;;16.30;5.22;;;;;;;16.96;79.97;101791.00;5028382;28;20040;-74
2022/07/23 07:44:45;;;;;;;14.70;4.78;;;;;;;16.98;79.04;101780.00;5033920;28;20025;-74
2022/07/23 07:47:10;;;;;;;13.85;5.18;;;;;;;17.04;79.60;101785.78;5033928;28;20396;-74
2022/07/23 07:49:35;;;;;;;18.30;6.70;;;;;;;17.06;78.47;101788.38;5028987;28;20035;-74
2022/07/23 07:52:00;;;;;;;16.58;5.15;;;;;;;17.09;77.99;101785.38;5012740;28;20032;-74
2022/07/23 07:54:26;;;;;;;17.73;5.97;;;;;;;17.14;78.38;101788.56;5012812;28;20497;-74
2022/07/23 07:56:51;;;;;;;16.08;5.90;;;;;;;17.19;76.81;101782.72;5014020;28;20048;-74
2022/07/23 07:59:16;;;;;;;15.60;5.35;;;;;;;17.25;77.36;101784.91;5012823;28;20034;-74
2022/07/23 08:01:41;;;;;;;15.93;5.82;;;;;;;17.30;78.53;101786.22;5012812;28;20028;-74
2022/07/23 08:04:07;;;;;;;17.23;5.95;;;;;;;17.37;77.07;101794.72;5013788;28;20026;-74
2022/07/23 08:06:32;;;;;;;14.10;5.07;;;;;;;17.37;71.36;101792.00;5013829;28;20026;-74
2022/07/23 08:08:58;;;;;;;14.75;5.43;;;;;;;17.43;72.93;101796.03;5012418;28;20037;-74
2022/07/23 08:11:23;;;;;;;16.35;5.93;;;;;;;17.44;71.74;101795.03;5013849;28;20490;-74
2022/07/23 08:13:48;;;;;;;14.68;4.78;;;;;;;17.48;72.53;101796.47;5014067;28;20025;-74
2022/07/23 08:16:13;;;;;;;17.63;6.10;;;;;;;17.52;74.61;101802.53;5033501;28;20029;-74
2022/07/23 08:18:39;;;;;;;18.50;6.05;;;;;;;17.57;74.74;101794.81;5031947;28;20030;-74
2022/07/23 08:21:05;;;;;;;16.65;5.93;;;;;;;17.60;74.32;101800.84;5017559;28;20034;-74
2022/07/23 08:23:31;;;;;;;17.15;5.63;;;;;;;17.68;75.36;101800.16;5013583;28;20030;-74
2022/07/23 08:25:57;;;;;;;17.38;5.72;;;;;;;17.69;72.98;101804.59;5013591;28;20481;-74
2022/07/23 08:28:22;;;;;;;17.70;5.60;;;;;;;17.74;73.73;101810.47;5011841;28;20049;-74
2022/07/23 08:30:48;;;;;;;13.82;5.00;;;;;;;17.78;72.04;101813.81;5013530;28;20041;-74
2022/07/23 08:33:15;;;;;;;18.63;5.97;;;;;;;17.85;73.17;101819.53;5011915;28;20389;-74
2022/07/23 08:35:44;;;;;;;14.23;5.45;;;;;;;17.89;72.90;101816.44;5013395;28;20038;-75
2022/07/23 08:38:10;;;;;;;16.52;6.00;;;;;;;17.94;73.53;101819.63;5013331;28;20537;-75
2022/07/23 08:40:41;;;;;;;20.95;5.95;;;;;;;18.01;74.60;101817.22;5013277;28;20030;-75
2022/07/23 08:43:10;;;;;;;16.75;5.85;;;;;;;18.08;73.44;101826.56;5013065;28;20030;-75
2022/07/23 08:45:38;;;;;;;15.95;5.15;;;;;;;18.14;71.80;101826.00;5028445;28;20026;-75
2022/07/23 08:48:07;;;;;;;15.33;4.80;;;;;;;18.16;73.34;101834.88;5013013;28;20021;-75
2022/07/23 08:50:34;;;;;;;16.55;5.13;;;;;;;18.20;70.62;101829.16;5012945;28;20402;-75
2022/07/23 08:53:00;;;;;;;15.57;4.78;;;;;;;18.23;71.26;101818.88;5012984;28;20062;-75
2022/07/23 08:55:25;;;;;;;15.82;4.85;;;;;;;18.31;72.97;101824.47;5013314;28;20033;-75
2022/07/23 08:57:52;;;;;;;13.25;4.57;;;;;;;18.34;73.24;101820.59;5031383;28;20017;-75
2022/07/23 09:00:19;;;;;;;17.20;5.65;;;;;;;18.41;72.73;101827.22;5031609;28;20017;-75
2022/07/23 09:02:45;;;;;;;13.63;5.18;;;;;;;18.46;73.47;101826.78;5032460;28;20101;-75
2022/07/23 09:05:12;;;;;;;14.68;5.70;;;;;;;18.47;70.92;101821.19;5031324;28;20021;-75
2022/07/23 09:08:07;;;;;;;13.93;4.80;;;;;;;18.54;73.92;101823.34;5032554;28;20033;-75
2022/07/23 09:10:44;;;;;;;13.65;4.97;;;;;;;18.57;71.49;101817.66;5032532;28;20029;-74
2022/07/23 09:13:32;;;;;;;17.88;5.60;;;;;;;18.58;71.57;101813.91;5032148;28;20025;-74
2022/07/23 09:16:02;;;;;;;15.75;4.57;;;;;;;18.59;73.18;101807.47;5031506;28;20017;-74
2022/07/23 09:18:41;;;;;;;15.05;5.18;;;;;;;18.69;73.16;101811.91;5032189;28;20053;-74
2022/07/23 09:21:29;;;;;;;16.20;5.18;;;;;;;18.73;72.50;101801.59;5014893;28;20029;-74
2022/07/23 09:23:56;;;;;;;13.25;4.88;;;;;;;18.80;73.39;101800.03;5012598;28;20200;-74
2022/07/23 09:26:26;;;;;;;17.67;5.20;;;;;;;18.82;70.00;101800.75;5012361;28;20030;-74
2022/07/23 09:29:02;;;;;;;13.50;4.65;;;;;;;18.89;70.68;101808.38;5013332;28;20041;-74
2022/07/23 09:31:47;;;;;;;15.63;4.75;;;;;;;18.90;71.16;101805.50;5021560;28;20037;-74
2022/07/23 09:34:23;;;;;;;14.13;5.32;;;;;;;18.90;69.40;101810.94;5020704;28;20049;-73
2022/07/23 09:37:08;;;;;;;16.48;5.25;;;;;;;18.88;65.68;101814.84;5028269;28;20034;-73
2022/07/23 09:39:34;;;;;;;15.80;4.70;;;;;;;18.88;67.92;101812.97;5021425;28;20076;-74
2022/07/23 09:42:22;;;;;;;15.38;5.20;;;;;;;18.93;71.36;101821.56;5035444;28;20017;-74
2022/07/23 09:44:50;;;;;;;14.65;5.47;;;;;;;18.94;68.82;101823.28;5023511;28;20095;-74
2022/07/23 09:47:17;;;;;;;15.60;5.32;;;;;;;18.97;68.89;101822.97;5022441;28;20051;-74
2022/07/23 09:50:00;;;;;;;15.57;5.00;;;;;;;19.03;70.87;101821.56;5024642;28;20033;-74
2022/07/23 09:52:30;;;;;;;16.67;5.82;;;;;;;19.07;68.24;101820.25;5032203;28;20034;-73
2022/07/23 09:55:00;;;;;;;;;;;;;;;19.13;71.16;101822.41;5026246;28;20072;-73
2022/07/23 09:57:26;;;;;;;15.20;5.18;;;;;;;19.17;67.46;101823.84;5027400;28;19921;-74
2022/07/23 09:59:52;;;;;;;16.55;5.25;;;;;;;19.26;71.41;101821.25;5023300;28;20029;-73
2022/07/23 10:02:18;;;;;;;14.00;5.05;;;;;;;19.28;71.28;101824.69;5018447;28;20485;-74
2022/07/23 10:04:43;;;;;;;15.38;5.18;;;;;;;19.36;70.51;101822.09;5015512;28;20040;-73
2022/07/23 10:07:10;;;;;;;15.60;5.22;;;;;;;19.37;69.13;101821.94;5030744;28;20035;-74
2022/07/23 10:09:37;;;;;;;17.70;5.53;;;;;;;19.41;68.59;101822.50;5033415;28;20029;-74
2022/07/23 10:14:32;;;;;;;16.77;5.15;;;;;;;19.50;69.06;101821.66;5034520;28;20527;-74
2022/07/23 10:16:58;;;;;;;19.27;4.88;;;;;;;19.56;69.06;101822.91;5032875;28;20065;-73
2022/07/23 10:19:24;;;;;;;13.70;4.85;;;;;;;19.61;69.16;101825.19;5032934;28;20053;-74
2022/07/23 10:21:54;;;;;;;12.55;4.13;;;;;;;19.64;70.36;101824.91;5015261;28;20022;-73
2022/07/23 10:24:28;;;;;;;11.18;4.47;;;;;;;19.67;69.34;101817.28;5051140;28;20396;-74
2022/07/23 10:27:30;;;;;;;16.02;5.50;;;;;;;19.72;69.10;101823.16;5035051;28;20103;-74
2022/07/23 10:30:04;;;;;;;13.18;4.30;;;;;;;19.84;69.64;101823.84;5027607;28;20444;-74
2022/07/23 10:33:00;;;;;;;10.15;4.00;;;;;;;19.85;68.82;101825.56;5034409;28;20120;-74
2022/07/23 10:35:33;;;;;;;14.15;5.10;;;;;;;19.95;66.57;101827.41;5036081;28;20041;-74
2022/07/23 10:38:18;;;;;;;20.52;4.85;;;;;;;19.93;65.56;101824.81;5035603;28;20107;-74
2022/07/23 10:40:58;;;;;;;15.93;4.53;;;;;;;19.93;66.23;101829.41;5029637;28;20037;-73
2022/07/23 10:43:23;;;;;;;10.52;3.92;;;;;;;19.93;63.85;101830.28;5027698;28;20025;-73
2022/07/23 10:45:49;;;;;;;12.65;3.85;;;;;;;19.95;63.52;101830.97;5032694;28;20385;-73
2022/07/23 10:48:23;;;;;;;14.55;3.72;;;;;;;19.99;62.35;101826.94;5027421;28;20029;-74
2022/07/23 10:51:27;;;;;;;10.73;3.47;;;;;;;20.06;63.89;101819.03;5026267;28;20033;-74
2022/07/23 10:53:58;;;;;;;13.07;4.25;;;;;;;20.10;64.20;101822.31;5002816;28;20057;-73
2022/07/23 10:56:54;;;;;;;9.85;3.78;;;;;;;20.13;63.71;101820.13;5003524;28;20533;-74
2022/07/23 10:59:19;;;;;;;12.68;3.75;;;;;;;20.15;62.50;101823.56;5002385;28;20037;-74
2022/07/23 11:01:44;;;;;;;10.38;3.90;;;;;;;20.16;60.56;101821.69;5003011;28;20072;-74
2022/07/23 11:04:11;;;;;;;11.40;3.78;;;;;;;20.19;62.61;101822.25;4997274;28;20038;-74
2022/07/23 11:06:49;;;;;;;10.32;3.03;;;;;;;20.23;63.39;101810.00;5000849;28;20447;-74
2022/07/23 11:09:28;;;;;;;5.65;2.47;;;;;;;20.23;65.87;101815.47;4999954;28;20088;-74
2022/07/23 11:12:21;;;;;;;7.32;3.10;;;;;;;20.28;64.18;101814.16;4995821;28;20636;-74
2022/07/23 11:15:04;;;;;;;4.90;2.47;;;;;;;20.22;66.27;101808.31;5000152;28;20285;-74
2022/07/23 11:17:31;;;;;;;12.00;3.28;;;;;;;20.25;63.49;101809.88;5003459;28;20041;-74
2022/07/23 11:20:08;;;;;;;11.48;3.60;;;;;;;20.27;63.62;101805.09;5006212;28;20033;-74